createdAt,value
2019-02-05T00:02:58.601Z,5.30
2019-02-05T00:21:51.619Z,6.90
2019-02-05T00:26:54.749Z,4.20
2019-02-05T00:31:43.554Z,3.10
2019-02-05T00:36:43.006Z,3.00
2019-02-05T00:41:32.046Z,2.10
2019-02-05T00:46:29.567Z,2.90
2019-02-05T00:51:19.895Z,2.30
2019-02-05T00:56:25.481Z,2.80
2019-02-05T01:01:16.180Z,2.90
2019-02-05T01:06:16.518Z,3.00
2019-02-05T01:11:03.731Z,3.40
2019-02-05T01:15:58.830Z,3.00
2019-02-05T01:20:49.503Z,3.20
2019-02-05T01:25:38.502Z,2.00
2019-02-05T01:30:28.532Z,2.50
2019-02-05T01:35:19.409Z,2.40
2019-02-05T01:40:12.222Z,2.40
2019-02-05T01:45:22.030Z,3.30
2019-02-05T01:50:12.863Z,2.50
2019-02-05T01:55:18.442Z,3.50
2019-02-05T02:00:07.276Z,2.20
2019-02-05T02:05:55.988Z,4.60
2019-02-05T02:11:07.541Z,4.10
2019-02-05T02:16:11.042Z,3.80
2019-02-05T02:20:57.214Z,2.60
2019-02-05T02:25:48.428Z,2.90
2019-02-05T02:30:40.143Z,2.40
2019-02-05T02:35:34.033Z,3.00
2019-02-05T02:40:23.156Z,2.10
2019-02-05T02:45:15.053Z,2.90
2019-02-05T02:50:07.063Z,2.80
2019-02-05T02:54:59.012Z,3.30
2019-02-05T02:59:51.035Z,3.00
2019-02-05T03:04:43.097Z,3.20
2019-02-05T03:09:35.065Z,2.20
2019-02-05T03:14:27.053Z,2.20
2019-02-05T03:19:18.769Z,3.70
2019-02-05T03:24:10.541Z,3.40
2019-02-05T03:29:02.665Z,3.30
2019-02-05T03:33:54.642Z,2.10
2019-02-05T03:38:46.648Z,3.00
2019-02-05T03:43:40.403Z,3.00
2019-02-05T03:48:42.061Z,3.80
2019-02-05T03:53:49.662Z,4.40
2019-02-05T03:58:55.280Z,4.40
2019-02-05T04:03:43.359Z,4.70
2019-02-05T04:08:35.574Z,3.20
2019-02-05T04:13:25.300Z,3.90
2019-02-05T04:18:27.452Z,4.00
2019-02-05T04:23:17.193Z,4.80
2019-02-05T04:28:22.886Z,4.80
2019-02-05T04:33:10.503Z,4.80
2019-02-05T04:38:16.554Z,4.80
2019-02-05T04:43:20.850Z,4.70
2019-02-05T04:48:33.597Z,5.40
2019-02-05T04:53:35.665Z,5.60
2019-02-05T04:58:38.539Z,6.20
2019-02-05T05:03:26.728Z,4.80
2019-02-05T05:08:17.721Z,4.80
2019-02-05T05:13:11.235Z,4.70
2019-02-05T05:18:02.235Z,4.70
2019-02-05T05:22:53.782Z,4.00
2019-02-05T05:27:45.834Z,4.50
2019-02-05T05:32:37.535Z,4.10
2019-02-05T05:37:31.228Z,6.10
2019-02-05T05:42:24.464Z,5.40
2019-02-05T05:47:17.836Z,5.10
2019-02-05T05:52:08.938Z,5.00
2019-02-05T05:57:02.817Z,5.50
2019-02-05T06:01:56.730Z,6.30
2019-02-05T06:06:50.289Z,6.10
2019-02-05T06:11:41.279Z,6.50
2019-02-05T06:16:33.247Z,5.70
2019-02-05T06:21:27.303Z,6.40
2019-02-05T06:26:20.865Z,7.30
2019-02-05T06:31:14.258Z,7.00
2019-02-05T06:36:07.974Z,8.00
2019-02-05T06:41:01.375Z,8.10
2019-02-05T06:45:52.777Z,8.20
2019-02-05T06:50:44.691Z,8.70
2019-02-05T06:55:33.811Z,7.10
2019-02-05T07:00:24.272Z,9.00
2019-02-05T07:05:16.455Z,8.60
2019-02-05T07:10:07.691Z,10.10
2019-02-05T07:14:59.874Z,8.00
2019-02-05T07:19:49.299Z,9.60
2019-02-05T07:24:37.280Z,10.30
2019-02-05T07:29:26.956Z,10.90
2019-02-05T07:34:21.902Z,10.20
2019-02-05T07:39:13.326Z,9.90
2019-02-05T07:44:05.395Z,9.00
2019-02-05T07:48:59.002Z,12.40
2019-02-05T07:53:48.813Z,12.80
2019-02-05T07:58:38.179Z,9.80
2019-02-05T08:03:33.014Z,12.50
2019-02-05T08:08:24.761Z,11.30
2019-02-05T08:13:14.954Z,9.40
2019-02-05T08:18:04.920Z,9.90
2019-02-05T08:22:55.597Z,10.60
2019-02-05T08:27:47.450Z,11.00
2019-02-05T08:32:39.830Z,11.00
2019-02-05T08:37:31.204Z,10.30
2019-02-05T08:42:22.982Z,10.50
2019-02-05T08:47:14.751Z,10.00
2019-02-05T08:52:06.498Z,7.80
2019-02-05T08:56:58.975Z,11.40
2019-02-05T09:01:51.117Z,10.70
2019-02-05T09:06:43.006Z,10.50
2019-02-05T09:11:35.022Z,9.40
2019-02-05T09:16:27.379Z,10.50
2019-02-05T09:21:20.202Z,6.90
2019-02-05T09:26:12.216Z,9.00
2019-02-05T09:31:04.090Z,9.80
2019-02-05T09:35:56.134Z,10.70
2019-02-05T09:40:48.434Z,9.10
2019-02-05T09:45:42.395Z,9.90
2019-02-05T09:50:44.495Z,8.50
2019-02-05T09:55:36.674Z,6.70
2019-02-05T10:00:28.599Z,8.40
2019-02-05T10:05:21.450Z,10.00
2019-02-05T10:10:15.277Z,10.10
2019-02-05T10:14:26.638Z,13.20
2019-02-05T10:19:18.863Z,9.60
2019-02-05T10:24:10.719Z,8.40
2019-02-05T10:29:02.825Z,9.90
2019-02-05T10:33:55.950Z,10.50
2019-02-05T10:38:49.355Z,10.90
2019-02-05T10:43:40.839Z,10.50
2019-02-05T10:48:32.706Z,10.80
2019-02-05T10:53:24.733Z,9.60
2019-02-05T10:58:16.811Z,8.50
2019-02-05T11:03:09.715Z,11.10
2019-02-05T11:08:01.538Z,8.50
2019-02-05T11:12:53.748Z,10.80
2019-02-05T11:17:45.442Z,8.10
2019-02-05T11:22:37.414Z,10.10
2019-02-05T11:27:29.923Z,10.60
2019-02-05T11:32:21.825Z,10.20
2019-02-05T11:37:13.856Z,12.20
2019-02-05T11:42:05.886Z,11.90
2019-02-05T11:46:57.995Z,11.70
2019-02-05T11:51:50.257Z,12.30
2019-02-05T11:56:41.559Z,10.90
2019-02-05T12:01:39.367Z,10.10
2019-02-05T12:06:29.584Z,11.30
2019-02-05T12:11:21.549Z,11.40
2019-02-05T12:16:10.907Z,11.10
2019-02-05T12:21:01.233Z,10.70
2019-02-05T12:25:50.734Z,11.90
2019-02-05T12:30:45.583Z,10.90
2019-02-05T12:35:34.432Z,9.00
2019-02-05T12:40:27.329Z,9.50
2019-02-05T12:45:19.451Z,10.70
2019-02-05T12:50:10.089Z,10.70
2019-02-05T12:55:12.905Z,8.30
2019-02-05T13:00:05.006Z,12.60
2019-02-05T13:04:56.957Z,12.70
2019-02-05T13:09:46.353Z,10.70
2019-02-05T13:14:37.891Z,10.10
2019-02-05T13:19:29.028Z,10.50
2019-02-05T13:24:19.987Z,9.30
2019-02-05T13:29:12.167Z,10.10
2019-02-05T13:34:01.201Z,9.80
2019-02-05T13:38:51.183Z,9.70
2019-02-05T13:43:42.934Z,12.10
2019-02-05T13:48:34.092Z,10.20
2019-02-05T13:53:24.537Z,12.40
2019-02-05T13:58:14.427Z,10.70
2019-02-05T14:03:04.236Z,10.60
2019-02-05T14:07:55.012Z,11.00
2019-02-05T14:12:44.398Z,10.20
2019-02-05T14:17:34.638Z,9.20
2019-02-05T14:22:24.715Z,11.20
2019-02-05T14:27:15.505Z,9.50
2019-02-05T14:32:05.199Z,9.60
2019-02-05T14:36:55.126Z,10.90
2019-02-05T14:41:46.797Z,9.80
2019-02-05T14:46:38.475Z,9.70
2019-02-05T14:51:31.294Z,11.10
2019-02-05T14:56:20.734Z,10.70
2019-02-05T15:01:12.399Z,10.90
2019-02-05T15:06:01.651Z,10.20
2019-02-05T15:10:51.846Z,8.50
2019-02-05T15:15:44.198Z,11.20
2019-02-05T15:20:33.738Z,10.30
2019-02-05T15:25:23.740Z,9.70
2019-02-05T15:30:15.636Z,12.30
2019-02-05T15:35:09.542Z,11.10
2019-02-05T15:40:00.735Z,10.10
2019-02-05T15:44:51.962Z,10.20
2019-02-05T15:49:51.794Z,12.40
2019-02-05T15:54:39.681Z,8.70
2019-02-05T15:59:31.451Z,10.90
2019-02-05T16:04:37.733Z,11.00
2019-02-05T16:09:33.193Z,10.60
2019-02-05T16:14:22.942Z,10.70
2019-02-05T16:19:14.017Z,11.00
2019-02-05T16:24:04.274Z,11.40
2019-02-05T16:28:54.135Z,9.10
2019-02-05T16:33:47.304Z,10.30
2019-02-05T16:38:38.341Z,9.80
2019-02-05T16:43:36.237Z,9.00
2019-02-05T16:48:23.863Z,9.80
2019-02-05T16:53:31.413Z,10.20
2019-02-05T16:58:20.293Z,9.00
2019-02-05T17:03:12.535Z,9.60
2019-02-05T17:10:21.566Z,13.00
2019-02-05T17:15:05.538Z,9.60
2019-02-05T17:19:54.094Z,10.10
2019-02-05T17:24:43.358Z,9.50
2019-02-05T17:29:32.154Z,9.00
2019-02-05T17:34:31.999Z,11.50
2019-02-05T17:39:20.024Z,9.80
2019-02-05T17:44:11.059Z,10.80
2019-02-05T17:49:02.320Z,11.10
2019-02-05T17:53:51.125Z,11.00
2019-02-05T17:58:39.011Z,9.80
2019-02-05T18:03:29.698Z,11.40
2019-02-05T18:08:29.271Z,12.30
2019-02-05T18:13:27.193Z,13.20
2019-02-05T18:18:17.016Z,10.50
2019-02-05T18:23:06.708Z,10.20
2019-02-05T18:28:06.360Z,11.80
2019-02-05T18:33:03.454Z,12.40
2019-02-05T18:38:10.652Z,13.00
2019-02-05T18:42:59.847Z,12.60
2019-02-05T18:50:09.808Z,18.20
2019-02-05T18:54:55.384Z,15.70
2019-02-05T18:59:44.343Z,14.60
2019-02-05T19:04:42.259Z,16.90
2019-02-05T19:09:30.131Z,13.00
2019-02-05T19:14:19.863Z,12.50
2019-02-05T19:19:16.009Z,11.70
2019-02-05T19:24:15.156Z,12.50
2019-02-05T19:29:05.004Z,9.90
2019-02-05T19:39:26.896Z,11.10
2019-02-05T19:44:15.964Z,10.70
2019-02-05T19:49:06.793Z,9.10
2019-02-05T19:53:58.779Z,10.70
2019-02-05T19:58:50.320Z,9.90
2019-02-05T20:03:39.643Z,9.20
2019-02-05T20:08:31.785Z,10.30
2019-02-05T20:13:21.094Z,8.20
2019-02-05T20:18:20.899Z,10.60
2019-02-05T20:23:10.190Z,10.90
2019-02-05T20:28:15.768Z,11.80
2019-02-05T20:33:05.285Z,11.50
2019-02-05T20:37:57.390Z,11.00
2019-02-05T20:42:48.874Z,11.40
2019-02-05T20:47:38.300Z,10.00
2019-02-05T20:52:26.646Z,9.70
2019-02-05T20:57:18.564Z,10.80
2019-02-05T21:02:09.570Z,12.40
2019-02-05T21:07:00.574Z,10.20
2019-02-05T21:11:52.077Z,10.50
2019-02-05T21:16:40.907Z,9.90
2019-02-05T21:21:32.570Z,11.00
2019-02-05T21:26:24.490Z,9.70
2019-02-05T21:31:16.444Z,11.10
2019-02-05T21:36:08.891Z,9.40
2019-02-05T21:41:00.715Z,11.10
2019-02-05T21:45:53.411Z,10.30
2019-02-05T21:50:46.149Z,12.20
2019-02-05T21:55:38.025Z,11.30
2019-02-05T22:00:29.821Z,12.40
2019-02-05T22:05:22.132Z,12.40
2019-02-05T22:10:16.088Z,12.80
2019-02-05T22:15:10.044Z,10.70
2019-02-05T22:20:01.618Z,11.00
2019-02-05T22:24:53.411Z,12.30
2019-02-05T22:29:47.203Z,11.60
2019-02-05T22:34:40.659Z,13.60
2019-02-05T22:39:31.972Z,12.30
2019-02-05T22:44:24.200Z,12.30
2019-02-05T22:49:17.396Z,10.20
2019-02-05T22:54:11.080Z,10.40
2019-02-05T22:59:02.604Z,10.50
2019-02-05T23:03:54.368Z,9.50
2019-02-05T23:08:46.538Z,9.20
2019-02-05T23:13:39.229Z,10.00
2019-02-05T23:18:31.215Z,9.50
2019-02-05T23:23:23.140Z,10.90
2019-02-05T23:28:15.153Z,12.70
2019-02-05T23:33:07.077Z,13.30
2019-02-05T23:37:58.848Z,13.30
2019-02-05T23:42:50.797Z,13.30
2019-02-05T23:47:42.636Z,11.60
2019-02-05T23:52:34.650Z,12.80
2019-02-05T23:57:27.359Z,11.20
